Time;durP1;ratioP1;P1;durP2;ratioP2;P2;SDS_P1;SDS_P2;PMS_P1;PMS_P2;Temp;Humidity;BMP_temperature;BMP_pressure;BME280_temperature;BME280_humidity;BME280_pressure;Samples;Min_cycle;Max_cycle;Signal;HPM_P1;HPM_P2
2021/07/14 00:01:17;;;;;;;5.00;3.70;;;;;;;18.32;100.00;101747.85;1971805;73;30936;-76
2021/07/14 00:06:43;;;;;;;4.50;3.80;;;;;;;18.36;100.00;101746.64;1971803;73;33372;-75
2021/07/14 00:12:10;;;;;;;5.17;4.23;;;;;;;18.16;100.00;101754.97;1972015;73;31045;-75
2021/07/14 00:17:50;;;;;;;5.03;4.40;;;;;;;18.02;100.00;101753.56;1972074;73;31440;-75
2021/07/14 00:23:09;;;;;;;3.87;3.57;;;;;;;18.03;100.00;101748.22;1971935;73;31414;-75
2021/07/14 00:28:34;;;;;;;4.30;3.90;;;;;;;18.04;100.00;101754.67;1971649;73;31064;-74
2021/07/14 00:34:18;;;;;;;4.57;4.17;;;;;;;17.96;100.00;101751.20;2016307;70;31345;-75
2021/07/14 00:39:43;;;;;;;4.30;3.90;;;;;;;17.95;100.00;101755.14;1972055;73;31531;-73
2021/07/14 00:45:10;;;;;;;5.67;4.27;;;;;;;17.93;100.00;101748.42;1971692;73;31060;-75
2021/07/14 00:50:34;;;;;;;4.73;4.33;;;;;;;17.82;100.00;101748.37;1971768;73;31023;-74
2021/07/14 00:56:01;;;;;;;4.83;3.93;;;;;;;17.85;100.00;101749.15;1970985;73;31431;-75
2021/07/14 01:01:26;;;;;;;10.70;4.20;;;;;;;17.84;100.00;101746.67;1971799;73;30934;-75
2021/07/14 01:06:58;;;;;;;5.13;4.43;;;;;;;17.82;100.00;101749.78;1971752;73;31471;-72
2021/07/14 01:12:30;;;;;;;4.57;4.07;;;;;;;17.67;100.00;101745.29;1972097;73;31409;-73
2021/07/14 01:18:01;;;;;;;5.23;4.10;;;;;;;17.66;100.00;101741.41;1971777;73;31104;-75
2021/07/14 01:23:52;;;;;;;5.97;4.37;;;;;;;17.58;100.00;101737.91;1972045;73;30931;-75
2021/07/14 01:29:30;;;;;;;5.10;4.60;;;;;;;17.37;100.00;101731.80;1971851;73;30922;-75
2021/07/14 01:34:59;;;;;;;5.47;4.73;;;;;;;17.20;100.00;101744.22;1970897;73;30979;-75
2021/07/14 01:40:26;;;;;;;5.20;4.70;;;;;;;17.42;100.00;101740.70;1971928;73;30945;-74
2021/07/14 01:45:54;;;;;;;8.43;5.63;;;;;;;17.64;100.00;101724.84;1971718;73;30986;-75
2021/07/14 01:51:20;;;;;;;6.63;5.40;;;;;;;17.66;100.00;101728.76;1971904;73;31046;-75
2021/07/14 01:56:48;;;;;;;5.70;5.10;;;;;;;17.52;100.00;101723.09;1941053;74;31012;-72
2021/07/14 02:02:16;;;;;;;5.97;5.37;;;;;;;17.58;100.00;101737.35;1971635;73;31108;-75
2021/07/14 02:07:42;;;;;;;5.50;5.00;;;;;;;17.59;100.00;101730.56;1971684;73;30937;-76
2021/07/14 02:13:09;;;;;;;5.17;4.67;;;;;;;17.62;100.00;101736.15;1971876;73;31451;-76
2021/07/14 02:18:41;;;;;;;5.40;4.90;;;;;;;17.68;100.00;101729.27;1971743;73;31020;-75
2021/07/14 02:24:07;;;;;;;5.63;4.67;;;;;;;17.50;100.00;101726.77;1972036;73;30956;-75
2021/07/14 02:29:31;;;;;;;5.50;4.03;;;;;;;17.58;100.00;101735.11;1972012;73;31007;-75
2021/07/14 02:34:57;;;;;;;5.13;4.40;;;;;;;17.57;100.00;101744.07;1971145;73;31421;-77
2021/07/14 02:40:30;;;;;;;4.70;4.27;;;;;;;17.52;100.00;101747.55;1972095;73;30934;-75
2021/07/14 02:45:58;;;;;;;4.70;4.20;;;;;;;17.42;100.00;101742.10;1971978;72;30941;-75
2021/07/14 02:51:26;;;;;;;4.90;4.43;;;;;;;17.41;100.00;101739.89;1971779;73;30975;-75
2021/07/14 02:56:58;;;;;;;5.50;4.93;;;;;;;17.39;100.00;101734.30;1971809;73;31011;-75
2021/07/14 03:02:25;;;;;;;5.77;5.13;;;;;;;17.39;100.00;101749.19;1971840;73;30933;-75
2021/07/14 03:07:53;;;;;;;6.30;5.70;;;;;;;17.35;100.00;101755.16;1972023;73;31555;-75
2021/07/14 03:13:18;;;;;;;7.30;6.67;;;;;;;17.38;100.00;101769.98;1971062;73;31070;-75
2021/07/14 03:18:47;;;;;;;7.50;6.70;;;;;;;17.35;100.00;101776.80;1971841;73;30915;-75
2021/07/14 03:24:12;;;;;;;7.80;7.00;;;;;;;17.34;100.00;101783.55;1971839;73;30925;-72
2021/07/14 03:29:37;;;;;;;7.43;6.73;;;;;;;17.29;100.00;101788.11;1971861;73;30913;-76
2021/07/14 03:35:04;;;;;;;8.30;7.50;;;;;;;17.22;100.00;101804.53;1971823;73;30921;-75
2021/07/14 03:40:28;;;;;;;7.93;7.03;;;;;;;17.17;100.00;101799.56;1971583;73;32933;-75
2021/07/14 03:46:01;;;;;;;8.53;7.67;;;;;;;17.09;100.00;101799.70;1971091;73;31550;-76
2021/07/14 03:51:27;;;;;;;8.07;7.10;;;;;;;17.04;100.00;101797.53;1971095;73;33432;-77
2021/07/14 03:56:52;;;;;;;9.90;8.80;;;;;;;17.03;100.00;101799.50;1970900;73;32953;-75
2021/07/14 04:02:17;;;;;;;10.00;9.00;;;;;;;16.99;100.00;101799.85;1872976;73;39705;-75
2021/07/14 04:07:44;;;;;;;9.83;8.53;;;;;;;16.93;100.00;101796.05;1971435;72;30935;-75
2021/07/14 04:13:30;;;;;;;9.67;8.57;;;;;;;16.94;100.00;101796.31;2015940;71;32893;-75
2021/07/14 04:18:54;;;;;;;12.07;10.20;;;;;;;16.89;100.00;101795.83;1971295;73;33015;-77
2021/07/14 04:24:19;;;;;;;10.67;9.13;;;;;;;16.86;100.00;101795.01;1971833;73;30951;-75
2021/07/14 04:29:43;;;;;;;12.53;9.60;;;;;;;16.82;100.00;101798.16;1972040;73;31094;-75
2021/07/14 04:35:14;;;;;;;12.17;10.80;;;;;;;16.74;100.00;101798.84;1971772;73;31019;-75
2021/07/14 04:40:58;;;;;;;12.23;10.97;;;;;;;16.78;100.00;101795.13;2015815;71;31008;-75
2021/07/14 04:46:22;;;;;;;13.53;10.90;;;;;;;16.74;100.00;101789.86;1972049;73;31419;-75
2021/07/14 04:51:48;;;;;;;12.37;10.67;;;;;;;16.70;100.00;101784.59;1963523;71;33030;-74
2021/07/14 04:57:12;;;;;;;13.17;11.70;;;;;;;16.74;100.00;101796.05;1972273;73;31421;-75
2021/07/14 05:02:37;;;;;;;13.33;11.90;;;;;;;16.74;100.00;101790.43;1971978;73;31564;-75
2021/07/14 05:08:08;;;;;;;13.10;11.77;;;;;;;16.76;100.00;101790.41;1972186;73;33006;-75
2021/07/14 05:13:33;;;;;;;14.30;11.13;;;;;;;16.75;100.00;101782.28;1971667;73;33000;-75
2021/07/14 05:19:04;;;;;;;13.80;12.33;;;;;;;16.64;100.00;101797.61;1971546;73;31025;-74
2021/07/14 05:24:28;;;;;;;13.67;12.13;;;;;;;16.76;100.00;101800.80;1972022;73;30967;-75
2021/07/14 05:29:54;;;;;;;14.17;12.73;;;;;;;16.80;100.00;101783.61;1971886;73;31432;-75
2021/07/14 05:35:18;;;;;;;14.23;12.83;;;;;;;16.91;100.00;101782.87;1971690;73;31051;-76
2021/07/14 05:40:43;;;;;;;13.10;11.27;;;;;;;16.95;100.00;101781.12;1971800;73;31039;-75
2021/07/14 05:46:08;;;;;;;13.90;12.17;;;;;;;16.98;100.00;101780.53;1971790;73;31121;-75
2021/07/14 05:51:33;;;;;;;13.27;11.80;;;;;;;17.02;100.00;101782.98;1964981;71;31081;-75
2021/07/14 05:56:57;;;;;;;13.27;11.20;;;;;;;17.09;100.00;101790.44;1971005;73;31008;-75
2021/07/14 06:02:22;;;;;;;12.60;11.37;;;;;;;17.16;100.00;101784.69;1972042;73;33356;-74
2021/07/14 06:07:46;;;;;;;11.73;10.43;;;;;;;17.18;100.00;101786.63;1971614;73;31038;-74
2021/07/14 06:13:11;;;;;;;12.10;10.90;;;;;;;17.23;100.00;101790.77;1972198;73;31132;-73
2021/07/14 06:18:36;;;;;;;11.63;10.50;;;;;;;17.29;100.00;101795.13;1971868;73;31041;-75
2021/07/14 06:24:00;;;;;;;13.97;10.83;;;;;;;17.36;100.00;101803.18;1971824;73;31068;-75
2021/07/14 06:29:25;;;;;;;12.73;10.80;;;;;;;17.39;100.00;101802.55;1971839;73;31009;-74
2021/07/14 06:34:49;;;;;;;11.20;9.93;;;;;;;17.48;100.00;101792.28;1971749;72;30932;-75
2021/07/14 06:40:16;;;;;;;10.83;9.73;;;;;;;17.59;100.00;101798.56;1970968;73;31498;-78
2021/07/14 06:45:40;;;;;;;9.47;8.47;;;;;;;17.64;100.00;101790.88;1970974;73;31415;-75
2021/07/14 06:51:04;;;;;;;11.53;10.33;;;;;;;17.74;100.00;101805.31;1970740;73;31003;-75
2021/07/14 06:56:28;;;;;;;10.50;9.33;;;;;;;17.82;100.00;101809.37;1970714;73;31019;-78
2021/07/14 07:01:53;;;;;;;9.23;8.43;;;;;;;18.00;100.00;101808.46;1971108;73;31064;-78
2021/07/14 07:07:17;;;;;;;9.87;8.63;;;;;;;18.18;100.00;101820.98;1971899;73;30935;-77
2021/07/14 07:12:42;;;;;;;10.83;9.00;;;;;;;18.44;100.00;101821.28;1971916;73;30947;-77
2021/07/14 07:18:08;;;;;;;11.83;9.90;;;;;;;18.94;100.00;101813.71;1970869;73;30980;-76
2021/07/14 07:23:32;;;;;;;10.80;9.63;;;;;;;19.00;100.00;101815.80;1972006;73;30986;-75
2021/07/14 07:29:03;;;;;;;12.73;9.20;;;;;;;18.83;100.00;101821.29;1972073;73;31002;-77
2021/07/14 07:34:24;;;;;;;10.13;9.03;;;;;;;18.59;100.00;101819.59;1971074;73;31047;-75
2021/07/14 07:39:49;;;;;;;10.73;9.73;;;;;;;18.82;100.00;101820.48;1971097;73;31536;-76
2021/07/14 07:45:33;;;;;;;10.47;9.47;;;;;;;19.29;100.00;101816.80;1971304;73;31018;-75
2021/07/14 07:50:57;;;;;;;10.27;9.23;;;;;;;19.69;100.00;101812.09;1971084;73;33406;-73
2021/07/14 07:56:22;;;;;;;9.60;8.63;;;;;;;19.69;100.00;101817.16;1971164;73;31060;-76
2021/07/14 08:01:47;;;;;;;9.67;8.67;;;;;;;19.64;100.00;101813.06;1971136;73;31024;-75
2021/07/14 08:07:11;;;;;;;11.63;9.43;;;;;;;19.61;100.00;101826.97;1971284;73;30981;-76
2021/07/14 08:12:36;;;;;;;8.67;7.77;;;;;;;19.67;100.00;101831.33;1970905;73;30958;-77
2021/07/14 08:18:02;;;;;;;9.30;8.40;;;;;;;19.60;100.00;101832.34;1971097;73;30979;-76
2021/07/14 08:23:28;;;;;;;10.50;8.67;;;;;;;19.86;100.00;101836.98;1970733;73;30973;-76
2021/07/14 08:28:52;;;;;;;10.00;8.87;;;;;;;19.95;100.00;101839.28;1970584;73;31020;-78
2021/07/14 08:34:16;;;;;;;10.30;9.40;;;;;;;19.89;100.00;101836.36;1970837;72;31103;-76
2021/07/14 08:39:40;;;;;;;10.40;8.67;;;;;;;20.03;100.00;101844.70;1970786;73;31008;-76
2021/07/14 08:45:08;;;;;;;9.73;8.40;;;;;;;20.12;100.00;101839.93;1971098;73;30950;-76
2021/07/14 08:50:41;;;;;;;9.17;8.10;;;;;;;20.35;100.00;101839.30;1970878;73;31492;-76
2021/07/14 08:56:04;;;;;;;8.95;8.05;;;;;;;20.86;100.00;101829.53;1970821;73;31008;-76
2021/07/14 09:01:29;;;;;;;9.30;8.33;;;;;;;20.86;100.00;101834.34;1971138;73;31026;-75
2021/07/14 09:06:54;;;;;;;10.53;8.57;;;;;;;20.71;100.00;101839.08;1970957;73;31042;-76
2021/07/14 09:12:18;;;;;;;9.93;8.73;;;;;;;20.60;100.00;101834.88;1970885;73;31036;-76
2021/07/14 09:17:46;;;;;;;9.53;8.53;;;;;;;20.53;100.00;101835.38;1971242;73;31670;-76
2021/07/14 09:23:13;;;;;;;11.65;8.15;;;;;;;20.56;100.00;101833.30;1971520;73;30939;-76
2021/07/14 09:28:40;;;;;;;9.10;8.20;;;;;;;20.60;100.00;101837.13;1971203;73;30982;-76
2021/07/14 09:34:07;;;;;;;9.10;7.67;;;;;;;20.80;100.00;101841.30;1971391;73;31019;-74
2021/07/14 09:39:35;;;;;;;8.60;7.90;;;;;;;20.87;100.00;101832.61;1971296;73;31395;-76
2021/07/14 09:45:04;;;;;;;8.83;7.93;;;;;;;20.91;100.00;101828.54;1971962;73;30937;-74
2021/07/14 09:50:34;;;;;;;9.63;8.33;;;;;;;20.96;100.00;101830.37;1971101;73;31022;-76
2021/07/14 09:56:01;;;;;;;8.27;7.47;;;;;;;21.15;100.00;101830.89;1971057;73;30999;-75
2021/07/14 10:01:29;;;;;;;8.63;7.63;;;;;;;21.37;100.00;101830.70;1971190;73;31039;-76
2021/07/14 10:07:05;;;;;;;8.53;7.73;;;;;;;21.41;100.00;101832.28;1971246;73;31013;-76
2021/07/14 10:12:29;;;;;;;8.78;7.70;;;;;;;;;;1971274;73;30996;-76
2021/07/14 10:15:01;;;;;;;8.45;7.65;;;;;;;21.26;100.00;101834.48;1934069;73;24199;-76
2021/07/14 10:20:35;;;;;;;8.33;7.63;;;;;;;21.44;100.00;101836.67;1971039;73;31022;-76
2021/07/14 10:26:02;;;;;;;8.40;7.60;;;;;;;21.48;100.00;101839.69;1971440;73;31116;-76
2021/07/14 10:31:28;;;;;;;8.08;7.08;;;;;;;21.65;100.00;101843.28;1971326;73;31469;-76
2021/07/14 10:36:53;;;;;;;8.75;7.87;;;;;;;21.65;100.00;101857.43;1971388;73;30969;-76
2021/07/14 10:42:18;;;;;;;8.83;7.90;;;;;;;21.72;100.00;101841.38;1971076;73;30921;-76
2021/07/14 10:47:46;;;;;;;7.90;7.08;;;;;;;21.88;100.00;101846.73;1971174;73;31142;-76
2021/07/14 10:53:13;;;;;;;9.83;8.37;;;;;;;21.93;100.00;101850.00;1971098;73;31070;-77
2021/07/14 10:58:39;;;;;;;7.67;6.97;;;;;;;22.16;100.00;101858.50;1971789;73;31018;-75
2021/07/14 11:04:04;;;;;;;7.75;7.03;;;;;;;22.16;100.00;101852.22;1971372;73;31068;-78
2021/07/14 11:09:36;;;;;;;6.30;5.70;;;;;;;22.16;100.00;101848.59;1971929;73;30962;-74
2021/07/14 11:15:06;;;;;;;7.67;6.97;;;;;;;22.33;100.00;101853.34;1971875;73;31023;-74
2021/07/14 11:20:42;;;;;;;6.10;5.50;;;;;;;22.37;100.00;101846.66;1971770;73;31008;-74
2021/07/14 11:26:20;;;;;;;8.53;6.75;;;;;;;22.33;100.00;101844.84;1970913;73;30918;-77
2021/07/14 11:32:04;;;;;;;6.70;6.15;;;;;;;22.45;100.00;101840.70;1970911;73;30987;-76
2021/07/14 11:37:35;;;;;;;6.40;5.80;;;;;;;22.56;100.00;101837.13;1971174;73;31067;-76
2021/07/14 11:43:43;;;;;;;7.95;6.40;;;;;;;22.67;100.00;101838.98;1970982;73;30973;-76
2021/07/14 11:49:10;;;;;;;5.95;5.45;;;;;;;22.55;100.00;101835.45;1970885;73;31089;-75
2021/07/14 11:54:35;;;;;;;6.22;5.55;;;;;;;22.81;100.00;101833.90;1970919;73;30980;-75
2021/07/14 12:00:12;;;;;;;6.80;6.20;;;;;;;22.48;100.00;101838.59;1970781;73;30997;-76
2021/07/14 12:05:38;;;;;;;5.90;5.40;;;;;;;22.88;100.00;101835.61;1972051;73;31486;-75
2021/07/14 12:11:08;;;;;;;6.15;5.00;;;;;;;22.89;100.00;101835.03;1972136;73;30934;-76
2021/07/14 12:16:33;;;;;;;5.05;4.55;;;;;;;22.75;100.00;101838.70;1971843;73;31207;-75
2021/07/14 12:21:59;;;;;;;5.42;4.92;;;;;;;22.88;100.00;101827.12;1962085;71;31100;-76
2021/07/14 12:27:28;;;;;;;5.65;5.08;;;;;;;22.85;100.00;101822.73;1970910;73;31174;-75
2021/07/14 12:32:56;;;;;;;5.17;4.58;;;;;;;22.45;100.00;101825.95;1971268;73;30930;-76
2021/07/14 12:38:22;;;;;;;5.12;4.35;;;;;;;22.75;100.00;101821.71;1971227;72;31491;-76
2021/07/14 12:44:09;;;;;;;5.37;4.97;;;;;;;22.53;100.00;101817.16;2015638;71;31350;-75
2021/07/14 12:49:34;;;;;;;4.08;3.70;;;;;;;22.75;100.00;101813.21;1971122;73;31495;-76
2021/07/14 12:55:09;;;;;;;4.30;4.00;;;;;;;22.97;100.00;101817.13;1972101;73;30937;-73
2021/07/14 13:00:34;;;;;;;5.20;4.33;;;;;;;22.80;100.00;101803.09;1972144;73;31465;-73
2021/07/14 13:06:00;;;;;;;4.05;3.75;;;;;;;22.91;100.00;101802.92;1971898;73;31041;-76
2021/07/14 13:11:29;;;;;;;3.98;3.67;;;;;;;22.91;100.00;101811.41;1972040;73;31024;-73
2021/07/14 13:16:54;;;;;;;4.42;4.12;;;;;;;22.71;100.00;101806.00;1970899;73;31012;-76
2021/07/14 13:22:39;;;;;;;4.22;3.80;;;;;;;22.87;100.00;101797.70;2016195;71;30845;-75
2021/07/14 13:28:19;;;;;;;5.45;4.15;;;;;;;22.59;100.00;101798.19;1971251;72;30994;-77
2021/07/14 13:33:48;;;;;;;18.35;5.22;;;;;;;22.99;100.00;101810.52;1971070;73;30956;-77
2021/07/14 13:39:19;;;;;;;4.70;3.92;;;;;;;22.91;100.00;101808.00;1971167;73;31501;-77
2021/07/14 13:44:45;;;;;;;4.05;3.75;;;;;;;22.78;100.00;101805.44;1971182;73;31023;-74
2021/07/14 13:50:17;;;;;;;3.60;3.30;;;;;;;23.40;100.00;101801.15;1971863;73;31431;-74
2021/07/14 13:56:02;;;;;;;4.78;3.58;;;;;;;23.42;100.00;101803.86;1971402;73;31637;-76
2021/07/14 14:01:26;;;;;;;3.58;3.27;;;;;;;23.29;100.00;101791.40;1971191;73;31083;-76
2021/07/14 14:06:57;;;;;;;3.62;2.92;;;;;;;23.13;100.00;101798.31;1971095;73;30967;-76
2021/07/14 14:12:24;;;;;;;4.60;3.08;;;;;;;23.43;100.00;101801.30;1971149;73;31737;-73
2021/07/14 14:17:51;;;;;;;5.60;3.40;;;;;;;23.45;100.00;101803.19;1971240;73;31488;-76
2021/07/14 14:23:20;;;;;;;3.27;2.98;;;;;;;23.02;100.00;101802.14;1971064;73;30953;-76
2021/07/14 14:28:45;;;;;;;3.40;3.20;;;;;;;23.32;100.00;101797.19;1971139;73;30965;-72
2021/07/14 14:34:10;;;;;;;3.55;2.83;;;;;;;23.53;100.00;101785.23;1971338;73;31516;-74
2021/07/14 14:39:35;;;;;;;3.00;2.67;;;;;;;23.43;100.00;101794.21;1971243;73;31480;-74
2021/07/14 14:45:00;;;;;;;2.90;2.70;;;;;;;23.53;100.00;101785.86;1971138;72;30954;-76
2021/07/14 14:50:24;;;;;;;3.15;2.85;;;;;;;23.55;100.00;101785.73;1971098;73;30975;-73
2021/07/14 14:55:49;;;;;;;3.20;2.67;;;;;;;23.46;100.00;101788.41;1971046;73;31031;-75
2021/07/14 15:01:13;;;;;;;2.98;2.67;;;;;;;23.61;100.00;101792.61;1970966;73;31016;-75
2021/07/14 15:06:37;;;;;;;3.20;3.00;;;;;;;23.70;100.00;101791.92;1971080;73;30931;-72
2021/07/14 15:12:01;;;;;;;2.22;2.12;;;;;;;23.56;100.00;101788.82;1971304;73;31002;-76
2021/07/14 15:17:33;;;;;;;2.72;2.52;;;;;;;23.69;100.00;101790.26;1971075;73;30969;-76
2021/07/14 15:23:02;;;;;;;3.12;2.40;;;;;;;23.71;100.00;101788.72;1971085;73;32192;-73
2021/07/14 15:28:40;;;;;;;3.17;2.72;;;;;;;23.59;100.00;101789.52;1970993;73;31097;-75
2021/07/14 15:34:08;;;;;;;2.98;2.75;;;;;;;23.33;100.00;101793.77;1972180;73;31387;-73
2021/07/14 15:39:33;;;;;;;2.95;2.75;;;;;;;23.17;100.00;101791.36;1971356;73;31038;-74
2021/07/14 15:45:01;;;;;;;3.12;2.83;;;;;;;23.37;100.00;101792.73;1971975;72;30983;-73
2021/07/14 15:50:27;;;;;;;3.58;2.50;;;;;;;23.41;100.00;101790.02;1970847;71;31024;-73
2021/07/14 15:55:54;;;;;;;2.50;2.30;;;;;;;23.49;100.00;101782.87;1971827;73;31025;-72
2021/07/14 16:01:18;;;;;;;3.55;2.20;;;;;;;23.61;100.00;101788.35;1971819;73;31053;-73
2021/07/14 16:06:43;;;;;;;3.22;2.33;;;;;;;23.62;100.00;101777.25;1970870;73;31570;-76
2021/07/14 16:12:10;;;;;;;2.80;2.37;;;;;;;23.52;100.00;101777.94;1972094;73;31454;-76
2021/07/14 16:17:34;;;;;;;2.58;2.33;;;;;;;23.70;100.00;101784.24;1971714;73;31483;-73
2021/07/14 16:22:59;;;;;;;2.20;2.00;;;;;;;23.70;100.00;101784.24;1971128;73;30914;-78
2021/07/14 16:28:23;;;;;;;2.60;2.00;;;;;;;23.79;100.00;101779.27;1972026;73;31398;-74
2021/07/14 16:33:48;;;;;;;2.62;2.42;;;;;;;23.64;100.00;101776.30;1971772;73;30969;-73
2021/07/14 16:39:13;;;;;;;4.47;2.30;;;;;;;23.65;100.00;101770.87;1971743;73;31375;-73
2021/07/14 16:44:37;;;;;;;2.62;2.42;;;;;;;23.64;100.00;101776.30;1972037;73;31106;-73
2021/07/14 16:50:02;;;;;;;3.58;2.25;;;;;;;23.51;100.00;101772.02;1972021;73;31408;-73
2021/07/14 16:55:28;;;;;;;2.65;2.45;;;;;;;23.53;100.00;101774.52;1972053;72;31503;-72
2021/07/14 17:00:52;;;;;;;2.70;2.50;;;;;;;23.62;100.00;101775.22;1971031;73;30928;-78
2021/07/14 17:08:46;;;;;;;2.80;2.27;;;;;;;23.60;100.00;101776.17;1972006;73;30938;-75
2021/07/14 17:14:10;;;;;;;2.80;2.60;;;;;;;23.47;100.00;101771.65;1971936;73;31518;-75
2021/07/14 17:19:35;;;;;;;2.20;2.10;;;;;;;23.50;100.00;101770.94;1971739;72;30915;-73
2021/07/14 17:25:00;;;;;;;6.45;2.92;;;;;;;23.49;100.00;101769.30;1972022;73;30935;-76
2021/07/14 17:30:27;;;;;;;2.45;2.22;;;;;;;23.47;100.00;101768.23;1971921;73;31425;-76
2021/07/14 17:35:52;;;;;;;2.92;2.08;;;;;;;23.53;100.00;101772.48;1971407;73;31466;-77
2021/07/14 17:41:19;;;;;;;4.20;1.98;;;;;;;23.50;100.00;101777.44;1971933;73;31379;-73
2021/07/14 17:46:43;;;;;;;2.08;1.98;;;;;;;23.36;100.00;101787.43;1971675;73;30915;-73
2021/07/14 17:52:08;;;;;;;1.90;1.80;;;;;;;23.32;100.00;101773.09;1948564;73;31038;-72
2021/07/14 17:57:32;;;;;;;1.92;1.82;;;;;;;23.44;100.00;101773.77;1972092;73;31382;-72
2021/07/14 18:02:56;;;;;;;2.27;1.98;;;;;;;23.46;100.00;101774.23;1971292;73;31452;-77
2021/07/14 18:08:21;;;;;;;2.33;2.12;;;;;;;23.34;100.00;101779.84;1971857;72;30911;-72
2021/07/14 18:13:45;;;;;;;2.08;1.75;;;;;;;23.40;100.00;101775.63;1900052;75;31346;-76
2021/07/14 18:19:10;;;;;;;3.17;2.10;;;;;;;23.43;100.00;101776.33;1971592;73;30993;-73
2021/07/14 18:24:34;;;;;;;2.30;2.10;;;;;;;23.44;100.00;101778.86;1971392;73;30920;-76
2021/07/14 18:29:59;;;;;;;2.87;1.90;;;;;;;23.38;100.00;101785.89;1971484;73;31594;-75
2021/07/14 18:35:24;;;;;;;2.12;1.80;;;;;;;23.41;100.00;101788.02;1971813;73;31007;-75
2021/07/14 18:40:53;;;;;;;3.05;1.87;;;;;;;23.38;100.00;101797.23;1972082;73;30911;-73
2021/07/14 18:46:16;;;;;;;2.17;1.95;;;;;;;23.37;100.00;101801.82;1972001;73;31034;-72
2021/07/14 18:51:40;;;;;;;2.10;1.80;;;;;;;23.26;100.00;101798.61;1954297;73;31055;-74
2021/07/14 18:57:06;;;;;;;2.25;2.05;;;;;;;23.26;100.00;101809.95;1972069;73;31592;-75
2021/07/14 19:02:30;;;;;;;3.52;1.90;;;;;;;23.16;100.00;101813.20;1971169;73;30994;-77
2021/07/14 19:07:55;;;;;;;4.62;2.30;;;;;;;23.09;100.00;101817.19;1971276;73;31067;-72
2021/07/14 19:13:21;;;;;;;2.72;2.00;;;;;;;22.84;100.00;101822.48;1971555;73;31442;-73
2021/07/14 19:18:48;;;;;;;3.08;2.33;;;;;;;22.70;100.00;101824.16;1971679;73;30980;-76
2021/07/14 19:24:12;;;;;;;1.70;1.60;;;;;;;22.56;100.00;101828.62;1971987;73;31489;-75
2021/07/14 19:29:37;;;;;;;2.15;1.95;;;;;;;22.18;100.00;101837.16;1971570;73;31553;-73
2021/07/14 19:35:08;;;;;;;4.62;2.40;;;;;;;22.11;100.00;101841.70;1971522;73;31654;-73
2021/07/14 19:40:32;;;;;;;2.20;2.00;;;;;;;22.20;100.00;101840.50;1971417;73;31467;-75
2021/07/14 19:45:57;;;;;;;4.00;2.15;;;;;;;22.08;100.00;101848.02;1971616;73;31072;-74
2021/07/14 19:51:21;;;;;;;2.70;2.17;;;;;;;22.05;100.00;101849.53;1971617;73;31406;-72
2021/07/14 19:57:06;;;;;;;2.75;2.08;;;;;;;21.86;100.00;101849.66;2015650;71;30905;-72
2021/07/14 20:02:49;;;;;;;1.98;1.87;;;;;;;21.92;100.00;101850.58;2015697;71;30835;-77
2021/07/14 20:08:14;;;;;;;2.17;1.77;;;;;;;21.82;100.00;101859.41;1971798;73;31580;-75
2021/07/14 20:13:39;;;;;;;2.62;2.17;;;;;;;21.53;100.00;101867.19;1971973;73;31004;-79
2021/07/14 20:19:04;;;;;;;2.22;2.00;;;;;;;21.59;100.00;101878.58;1970978;73;31004;-72
2021/07/14 20:24:29;;;;;;;2.50;2.30;;;;;;;21.48;100.00;101881.48;1971453;73;31399;-71
2021/07/14 20:29:53;;;;;;;2.65;2.40;;;;;;;21.60;100.00;101888.73;1971123;72;30940;-74
2021/07/14 20:35:19;;;;;;;2.50;2.30;;;;;;;21.54;100.00;101897.70;1971472;73;30932;-73
2021/07/14 20:40:43;;;;;;;2.50;2.27;;;;;;;21.50;100.00;101903.20;1971462;73;31057;-76
2021/07/14 20:46:08;;;;;;;2.98;2.77;;;;;;;21.36;100.00;101916.66;1971087;73;31026;-78
2021/07/14 20:51:33;;;;;;;3.77;2.58;;;;;;;21.27;100.00;101921.48;1971195;73;31028;-71
2021/07/14 20:56:58;;;;;;;2.80;2.55;;;;;;;21.14;100.00;101930.36;1972140;73;31021;-77
2021/07/14 21:02:24;;;;;;;3.60;2.50;;;;;;;21.03;100.00;101933.81;1971790;73;31590;-74
2021/07/14 21:07:54;;;;;;;3.53;3.23;;;;;;;20.90;100.00;101944.09;1971822;73;30916;-74
2021/07/14 21:13:18;;;;;;;3.42;3.02;;;;;;;20.86;100.00;101950.14;1971980;73;31459;-76
2021/07/14 21:18:42;;;;;;;3.87;3.47;;;;;;;20.80;100.00;101957.92;1972101;73;31021;-76
2021/07/14 21:24:09;;;;;;;4.25;3.40;;;;;;;20.64;100.00;101967.17;1971457;73;30941;-70
2021/07/14 21:29:33;;;;;;;3.97;3.50;;;;;;;20.53;100.00;101960.16;1971296;73;31044;-74
2021/07/14 21:34:58;;;;;;;4.23;3.57;;;;;;;20.33;100.00;101965.20;1971393;73;31014;-70
2021/07/14 21:40:24;;;;;;;4.00;3.60;;;;;;;20.37;100.00;101962.56;1971559;73;30933;-74
2021/07/14 21:45:55;;;;;;;4.10;3.70;;;;;;;20.10;100.00;101963.56;1972002;72;31400;-76
2021/07/14 21:51:18;;;;;;;3.67;3.33;;;;;;;20.09;100.00;101970.35;1971627;73;31093;-70
2021/07/14 21:56:42;;;;;;;3.90;3.60;;;;;;;19.99;100.00;101966.38;1971176;73;30945;-70
2021/07/14 22:02:06;;;;;;;6.03;3.90;;;;;;;19.83;100.00;101971.59;1971870;73;31039;-77
2021/07/14 22:07:31;;;;;;;5.43;4.20;;;;;;;19.56;100.00;101978.73;1971959;73;30928;-75
2021/07/14 22:12:56;;;;;;;3.60;3.30;;;;;;;19.30;100.00;101985.50;1971786;73;30944;-74
2021/07/14 22:18:21;;;;;;;4.50;4.10;;;;;;;19.28;100.00;101999.09;1971265;72;30984;-72
2021/07/14 22:23:48;;;;;;;4.40;4.07;;;;;;;19.58;100.00;101991.95;1971640;73;31082;-72
2021/07/14 22:29:14;;;;;;;4.10;3.80;;;;;;;19.67;100.00;101993.43;1971467;73;30938;-70
2021/07/14 22:34:40;;;;;;;4.17;3.80;;;;;;;19.61;100.00;102001.17;1972050;73;31374;-74
2021/07/14 22:40:11;;;;;;;4.07;3.77;;;;;;;19.33;100.00;102000.97;1938308;74;31070;-73
2021/07/14 22:45:37;;;;;;;3.63;3.33;;;;;;;19.45;100.00;101999.87;1971654;72;31533;-72
2021/07/14 22:51:02;;;;;;;6.50;3.90;;;;;;;19.46;100.00;101998.16;1971296;73;31033;-72
2021/07/14 22:56:27;;;;;;;4.10;3.80;;;;;;;19.26;100.00;102004.77;1971150;73;30965;-70
2021/07/14 23:01:51;;;;;;;4.80;4.33;;;;;;;19.16;100.00;102017.69;1971723;73;31481;-70
2021/07/14 23:07:16;;;;;;;4.30;3.90;;;;;;;18.83;100.00;102018.36;1971449;72;30948;-72
2021/07/14 23:12:44;;;;;;;3.90;3.60;;;;;;;19.03;100.00;102020.20;1971835;73;30997;-72
2021/07/14 23:18:09;;;;;;;3.90;3.60;;;;;;;18.77;100.00;102013.42;1971468;73;30977;-72
2021/07/14 23:23:34;;;;;;;4.07;3.37;;;;;;;18.68;100.00;102013.05;1971233;73;30946;-72
2021/07/14 23:28:58;;;;;;;4.17;3.80;;;;;;;18.83;100.00;102006.52;1971462;73;31412;-70
2021/07/14 23:34:24;;;;;;;3.83;3.43;;;;;;;18.90;100.00;102008.94;1971515;73;30939;-70
2021/07/14 23:39:48;;;;;;;3.90;3.50;;;;;;;18.76;100.00;102009.50;1971430;73;30949;-72
2021/07/14 23:45:15;;;;;;;3.33;3.13;;;;;;;18.76;100.00;102002.47;1971112;73;31024;-71
2021/07/14 23:51:00;;;;;;;3.20;3.00;;;;;;;18.50;100.00;102004.34;2015955;71;30921;-70
2021/07/14 23:56:24;;;;;;;4.13;3.70;;;;;;;18.43;100.00;102012.38;1971414;73;31429;-70
